createdAt,value
2017-07-26T00:00:18.754Z,68.80
2017-07-26T00:02:46.233Z,68.80
2017-07-26T00:05:13.742Z,68.80
2017-07-26T00:07:41.197Z,68.80
2017-07-26T00:10:08.659Z,68.70
2017-07-26T00:12:36.145Z,68.90
2017-07-26T00:15:03.612Z,69.10
2017-07-26T00:17:31.112Z,69.10
2017-07-26T00:19:58.675Z,69.20
2017-07-26T00:22:26.134Z,69.10
2017-07-26T00:24:53.586Z,69.10
2017-07-26T00:27:21.113Z,69.20
2017-07-26T00:29:48.578Z,69.20
2017-07-26T00:32:16.035Z,69.20
2017-07-26T00:34:43.522Z,69.30
2017-07-26T00:37:10.986Z,69.20
2017-07-26T00:39:39.214Z,68.70
2017-07-26T00:42:06.714Z,69.10
2017-07-26T00:44:34.162Z,69.20
2017-07-26T00:47:01.622Z,69.20
2017-07-26T00:49:29.182Z,69.30
2017-07-26T00:51:56.643Z,69.40
2017-07-26T00:54:24.112Z,69.40
2017-07-26T00:56:51.598Z,69.40
2017-07-26T00:59:19.062Z,69.30
2017-07-26T01:01:46.565Z,69.20
2017-07-26T01:04:14.018Z,69.30
2017-07-26T01:06:41.479Z,69.30
2017-07-26T01:09:08.954Z,69.40
2017-07-26T01:11:36.492Z,69.30
2017-07-26T01:14:03.986Z,69.30
2017-07-26T01:16:31.465Z,69.40
2017-07-26T01:18:58.918Z,69.40
2017-07-26T01:21:26.394Z,69.50
2017-07-26T01:23:53.914Z,69.50
2017-07-26T01:26:21.386Z,69.60
2017-07-26T01:28:49.645Z,69.80
2017-07-26T01:31:17.098Z,69.80
2017-07-26T01:33:44.553Z,69.90
2017-07-26T01:36:12.038Z,69.80
2017-07-26T01:38:40.258Z,69.70
2017-07-26T01:41:07.706Z,69.70
2017-07-26T01:43:35.177Z,70.60
2017-07-26T01:46:02.633Z,69.60
2017-07-26T01:48:30.196Z,69.60
2017-07-26T01:50:57.650Z,69.50
2017-07-26T01:53:25.134Z,69.80
2017-07-26T01:55:52.589Z,69.70
2017-07-26T01:58:20.180Z,69.80
2017-07-26T02:00:48.409Z,70.10
2017-07-26T02:03:15.874Z,70.00
2017-07-26T02:05:43.351Z,70.10
2017-07-26T02:08:10.914Z,70.20
2017-07-26T02:10:38.375Z,70.20
2017-07-26T02:13:05.871Z,70.10
2017-07-26T02:15:33.321Z,70.90
2017-07-26T02:18:00.796Z,70.10
2017-07-26T02:20:28.273Z,70.20
2017-07-26T02:22:55.722Z,70.20
2017-07-26T02:25:23.215Z,70.20
2017-07-26T02:27:50.750Z,70.10
2017-07-26T02:30:18.217Z,70.20
2017-07-26T02:32:45.706Z,70.20
2017-07-26T02:35:13.157Z,70.30
2017-07-26T02:37:40.617Z,70.30
2017-07-26T02:40:08.085Z,70.40
2017-07-26T02:42:35.628Z,70.40
2017-07-26T02:45:03.081Z,70.20
2017-07-26T02:47:30.567Z,70.20
2017-07-26T02:49:58.789Z,70.20
2017-07-26T02:52:26.251Z,70.20
2017-07-26T02:54:53.741Z,70.20
2017-07-26T02:57:21.200Z,70.20
2017-07-26T02:59:48.665Z,70.20
2017-07-26T03:02:16.933Z,70.50
2017-07-26T03:04:44.385Z,70.40
2017-07-26T03:07:11.842Z,70.40
2017-07-26T03:09:39.382Z,70.40
2017-07-26T03:12:06.852Z,70.40
2017-07-26T03:14:34.444Z,70.40
2017-07-26T03:17:01.951Z,70.50
2017-07-26T03:19:29.434Z,70.40
2017-07-26T03:21:56.916Z,70.30
2017-07-26T03:24:24.382Z,70.30
2017-07-26T03:26:51.869Z,70.40
2017-07-26T03:29:19.334Z,70.30
2017-07-26T03:31:46.802Z,71.20
2017-07-26T03:34:14.282Z,70.40
2017-07-26T03:36:41.742Z,70.50
2017-07-26T03:39:09.301Z,70.40
2017-07-26T03:41:36.760Z,70.50
2017-07-26T03:44:04.226Z,70.40
2017-07-26T03:46:31.706Z,70.40
2017-07-26T03:48:59.167Z,70.50
2017-07-26T03:51:26.654Z,70.50
2017-07-26T03:53:54.111Z,70.50
2017-07-26T03:56:21.570Z,70.40
2017-07-26T03:58:49.065Z,70.60
2017-07-26T04:01:16.523Z,70.50
2017-07-26T04:03:43.991Z,70.50
2017-07-26T04:06:11.485Z,70.50
2017-07-26T04:08:38.966Z,70.60
2017-07-26T04:11:06.430Z,70.60
2017-07-26T04:13:33.922Z,70.70
2017-07-26T04:16:01.386Z,70.70
2017-07-26T04:18:28.878Z,70.70
2017-07-26T04:20:56.343Z,70.60
2017-07-26T04:23:23.819Z,70.60
2017-07-26T04:25:51.297Z,70.60
2017-07-26T04:28:18.753Z,70.70
2017-07-26T04:30:46.219Z,70.90
2017-07-26T04:33:13.709Z,70.90
2017-07-26T04:35:41.942Z,70.70
2017-07-26T04:38:09.403Z,70.90
2017-07-26T04:40:36.897Z,70.80
2017-07-26T04:43:05.116Z,70.60
2017-07-26T04:45:32.621Z,70.60
2017-07-26T04:48:00.083Z,70.60
2017-07-26T04:50:27.539Z,70.60
2017-07-26T04:52:55.059Z,70.70
2017-07-26T04:55:22.550Z,70.80
2017-07-26T04:57:50.144Z,70.80
2017-07-26T05:00:17.642Z,70.70
2017-07-26T05:02:45.143Z,70.80
2017-07-26T05:05:12.629Z,70.70
2017-07-26T05:07:40.123Z,70.70
2017-07-26T05:10:07.709Z,70.70
2017-07-26T05:12:35.191Z,70.70
2017-07-26T05:15:02.664Z,70.70
2017-07-26T05:17:30.146Z,70.80
2017-07-26T05:19:57.603Z,70.70
2017-07-26T05:22:25.052Z,70.80
2017-07-26T05:24:52.573Z,70.80
2017-07-26T05:27:21.027Z,71.70
2017-07-26T05:29:48.663Z,70.90
2017-07-26T05:32:16.376Z,71.10
2017-07-26T05:34:44.637Z,71.20
2017-07-26T05:37:12.109Z,71.20
2017-07-26T05:39:39.595Z,71.20
2017-07-26T05:42:07.041Z,71.20
2017-07-26T05:44:34.524Z,71.20
2017-07-26T05:47:01.994Z,71.00
2017-07-26T05:49:29.498Z,70.90
2017-07-26T05:51:56.966Z,70.90
2017-07-26T05:54:24.449Z,70.80
2017-07-26T05:56:51.921Z,70.70
2017-07-26T05:59:19.379Z,70.40
2017-07-26T06:01:46.853Z,70.30
2017-07-26T06:04:14.347Z,70.20
2017-07-26T06:06:41.807Z,70.00
2017-07-26T06:09:09.260Z,70.00
2017-07-26T06:11:36.732Z,69.90
2017-07-26T06:14:04.201Z,69.90
2017-07-26T06:16:32.454Z,69.50
2017-07-26T06:18:59.913Z,69.50
2017-07-26T06:21:27.393Z,69.20
2017-07-26T06:23:55.645Z,69.20
2017-07-26T06:26:23.141Z,69.20
2017-07-26T06:28:50.611Z,69.00
2017-07-26T06:31:18.061Z,68.80
2017-07-26T06:33:45.553Z,68.50
2017-07-26T06:36:13.039Z,68.50
2017-07-26T06:38:40.494Z,68.40
2017-07-26T06:41:07.994Z,68.00
2017-07-26T06:43:35.458Z,67.80
2017-07-26T06:46:02.905Z,67.80
2017-07-26T06:48:30.385Z,67.70
2017-07-26T06:50:57.841Z,67.40
2017-07-26T06:53:25.347Z,67.00
2017-07-26T06:55:52.815Z,66.50
2017-07-26T06:58:20.319Z,66.30
2017-07-26T07:00:47.815Z,66.10
2017-07-26T07:03:15.262Z,65.50
2017-07-26T07:05:42.713Z,64.70
2017-07-26T07:08:10.187Z,63.50
2017-07-26T07:10:37.634Z,63.40
2017-07-26T07:13:05.118Z,63.00
2017-07-26T07:15:32.565Z,62.80
2017-07-26T07:18:00.030Z,62.50
2017-07-26T07:20:27.500Z,62.40
2017-07-26T07:22:54.981Z,62.10
2017-07-26T07:25:22.433Z,61.80
2017-07-26T07:27:49.947Z,61.80
2017-07-26T07:30:17.409Z,62.00
2017-07-26T07:32:44.906Z,62.20
2017-07-26T07:35:12.362Z,61.80
2017-07-26T07:37:40.574Z,61.80
2017-07-26T07:40:08.050Z,61.70
2017-07-26T07:42:35.507Z,62.20
2017-07-26T07:45:02.982Z,62.50
2017-07-26T07:47:30.458Z,61.80
2017-07-26T07:49:58.802Z,60.80
2017-07-26T07:52:26.262Z,60.70
2017-07-26T07:54:53.713Z,60.50
2017-07-26T07:57:21.185Z,60.20
2017-07-26T07:59:48.629Z,60.40
2017-07-26T08:02:16.121Z,60.40
2017-07-26T08:04:43.574Z,60.60
2017-07-26T08:07:11.030Z,60.50
2017-07-26T08:09:38.525Z,60.70
2017-07-26T08:12:05.986Z,60.60
2017-07-26T08:14:33.439Z,60.00
2017-07-26T08:17:00.910Z,59.80
2017-07-26T08:19:28.366Z,59.30
2017-07-26T08:21:55.842Z,59.30
2017-07-26T08:24:23.297Z,59.00
2017-07-26T08:26:50.786Z,58.80
2017-07-26T08:29:18.238Z,58.50
2017-07-26T08:31:45.690Z,58.00
2017-07-26T08:34:13.258Z,57.80
2017-07-26T08:36:40.749Z,57.70
2017-07-26T08:39:08.210Z,57.20
2017-07-26T08:41:35.656Z,56.40
2017-07-26T08:44:03.143Z,56.40
2017-07-26T08:46:30.601Z,56.40
2017-07-26T08:48:58.052Z,56.10
2017-07-26T08:51:25.542Z,56.00
2017-07-26T08:53:52.986Z,55.80
2017-07-26T08:56:20.462Z,56.20
2017-07-26T08:58:47.918Z,56.30
2017-07-26T09:01:15.399Z,56.40
2017-07-26T09:03:42.882Z,56.50
2017-07-26T09:06:11.108Z,56.20
2017-07-26T09:08:38.558Z,56.20
2017-07-26T09:11:06.035Z,55.90
2017-07-26T09:13:33.506Z,56.20
2017-07-26T09:16:00.966Z,54.70
2017-07-26T09:18:28.521Z,54.90
2017-07-26T09:20:55.970Z,55.10
2017-07-26T09:23:23.426Z,54.50
2017-07-26T09:25:50.905Z,54.20
2017-07-26T09:28:18.358Z,53.50
2017-07-26T09:30:45.812Z,52.90
2017-07-26T09:33:13.289Z,52.80
2017-07-26T09:35:41.545Z,54.20
2017-07-26T09:38:09.003Z,53.60
2017-07-26T09:40:36.457Z,53.90
2017-07-26T09:43:03.932Z,54.10
2017-07-26T09:45:31.481Z,53.80
2017-07-26T09:47:58.942Z,53.60
2017-07-26T09:50:26.430Z,53.40
2017-07-26T09:52:53.886Z,53.00
2017-07-26T09:55:21.337Z,53.10
2017-07-26T09:57:48.814Z,53.00
2017-07-26T10:00:16.269Z,52.90
2017-07-26T10:02:43.764Z,52.60
2017-07-26T10:05:11.218Z,52.90
2017-07-26T10:07:38.675Z,53.30
2017-07-26T10:10:06.270Z,53.60
2017-07-26T10:12:33.720Z,54.10
2017-07-26T10:15:01.185Z,54.30
2017-07-26T10:17:28.682Z,54.60
2017-07-26T10:19:56.154Z,54.90
2017-07-26T10:22:23.608Z,55.00
2017-07-26T10:24:51.101Z,55.10
2017-07-26T10:27:18.598Z,55.00
2017-07-26T10:29:46.811Z,54.50
2017-07-26T10:32:14.306Z,54.50
2017-07-26T10:34:41.763Z,53.80
2017-07-26T10:37:09.250Z,53.40
2017-07-26T10:39:37.601Z,52.00
2017-07-26T10:42:05.071Z,52.00
2017-07-26T10:44:32.530Z,52.00
2017-07-26T10:47:00.026Z,51.80
2017-07-26T10:49:27.482Z,51.60
2017-07-26T10:51:54.943Z,51.50
2017-07-26T10:54:22.418Z,51.60
2017-07-26T10:56:49.865Z,51.60
2017-07-26T10:59:17.370Z,51.60
2017-07-26T11:01:44.830Z,51.10
2017-07-26T11:04:12.287Z,50.80
2017-07-26T11:06:39.761Z,50.90
2017-07-26T11:09:08.122Z,50.60
2017-07-26T11:11:35.577Z,50.40
2017-07-26T11:14:03.034Z,50.70
2017-07-26T11:16:30.510Z,50.50
2017-07-26T11:18:57.964Z,50.20
2017-07-26T11:21:25.449Z,49.50
2017-07-26T11:23:52.900Z,49.80
2017-07-26T11:26:20.352Z,49.90
2017-07-26T11:28:47.851Z,50.40
2017-07-26T11:31:15.298Z,50.20
2017-07-26T11:33:42.762Z,50.10
2017-07-26T11:36:10.243Z,49.60
2017-07-26T11:38:37.810Z,49.60
2017-07-26T11:41:05.283Z,49.20
2017-07-26T11:43:32.732Z,49.20
2017-07-26T11:46:00.205Z,49.20
2017-07-26T11:48:27.678Z,49.10
2017-07-26T11:50:55.158Z,49.10
2017-07-26T11:53:22.614Z,49.10
2017-07-26T11:55:50.089Z,49.30
2017-07-26T11:58:17.546Z,49.60
2017-07-26T12:00:45.042Z,49.90
2017-07-26T12:03:12.497Z,50.10
2017-07-26T12:05:39.965Z,49.80
2017-07-26T12:08:07.417Z,48.60
2017-07-26T12:10:34.901Z,48.30
2017-07-26T12:13:03.950Z,48.60
2017-07-26T12:15:31.510Z,48.60
2017-07-26T12:17:59.005Z,48.30
2017-07-26T12:20:30.418Z,48.00
2017-07-26T12:22:58.142Z,47.50
2017-07-26T12:25:25.630Z,47.40
2017-07-26T12:27:53.125Z,47.00
2017-07-26T12:30:20.596Z,47.40
2017-07-26T12:32:48.096Z,47.60
2017-07-26T12:35:15.620Z,47.00
2017-07-26T12:37:43.081Z,46.40
2017-07-26T12:40:10.525Z,46.60
2017-07-26T12:42:38.014Z,46.70
2017-07-26T12:45:05.489Z,46.50
2017-07-26T12:47:32.963Z,46.50
2017-07-26T12:50:00.552Z,46.40
2017-07-26T12:52:28.006Z,46.60
2017-07-26T12:54:55.635Z,46.10
2017-07-26T12:57:23.113Z,45.90
2017-07-26T12:59:51.053Z,45.60
2017-07-26T13:02:18.912Z,45.60
2017-07-26T13:04:46.491Z,45.60
2017-07-26T13:07:14.313Z,45.40
2017-07-26T13:09:42.029Z,45.10
2017-07-26T13:12:09.530Z,44.90
2017-07-26T13:14:37.257Z,45.00
2017-07-26T13:17:04.831Z,45.10
2017-07-26T13:19:32.742Z,44.80
2017-07-26T13:22:00.525Z,44.80
2017-07-26T13:24:28.014Z,44.10
2017-07-26T13:26:55.722Z,44.00
2017-07-26T13:29:23.337Z,43.80
2017-07-26T13:31:50.941Z,43.80
2017-07-26T13:34:18.688Z,43.00
2017-07-26T13:36:46.473Z,42.90
2017-07-26T13:39:14.132Z,42.00
2017-07-26T13:41:41.698Z,42.10
2017-07-26T13:44:09.310Z,42.50
2017-07-26T13:46:36.905Z,42.30
2017-07-26T13:49:04.477Z,40.90
2017-07-26T13:51:32.173Z,40.90
2017-07-26T13:53:59.769Z,40.80
2017-07-26T13:56:27.289Z,39.90
2017-07-26T13:58:54.745Z,37.30
2017-07-26T14:01:22.201Z,34.30
2017-07-26T14:03:49.690Z,32.30
2017-07-26T14:06:17.144Z,31.70
2017-07-26T14:08:44.631Z,30.00
2017-07-26T14:11:12.129Z,29.00
2017-07-26T14:13:39.569Z,28.60
2017-07-26T14:16:07.028Z,27.50
2017-07-26T14:18:34.493Z,26.80
2017-07-26T14:21:01.986Z,26.10
2017-07-26T14:23:29.443Z,27.00
2017-07-26T14:25:56.897Z,25.70
2017-07-26T14:28:24.393Z,26.20
2017-07-26T14:30:51.842Z,27.30
2017-07-26T14:33:19.298Z,27.90
2017-07-26T14:35:46.781Z,28.10
2017-07-26T14:38:14.231Z,27.00
2017-07-26T14:40:41.692Z,25.50
2017-07-26T14:43:09.154Z,25.70
2017-07-26T14:45:36.625Z,26.80
2017-07-26T14:48:04.074Z,26.30
2017-07-26T14:50:31.554Z,24.70
2017-07-26T14:52:59.016Z,23.20
2017-07-26T14:55:26.469Z,22.50
2017-07-26T14:57:53.943Z,21.90
2017-07-26T15:00:21.422Z,22.80
2017-07-26T15:02:48.872Z,22.40
2017-07-26T15:05:16.327Z,22.20
2017-07-26T15:07:43.813Z,21.50
2017-07-26T15:10:11.265Z,20.30
2017-07-26T15:12:38.769Z,20.20
2017-07-26T15:15:06.258Z,19.80
2017-07-26T15:17:33.728Z,19.50
2017-07-26T15:20:01.269Z,18.70
2017-07-26T15:22:28.753Z,18.50
2017-07-26T15:24:56.244Z,18.90
2017-07-26T15:27:23.697Z,18.70
2017-07-26T15:29:51.158Z,18.40
2017-07-26T15:32:18.642Z,18.30
2017-07-26T15:34:46.106Z,18.50
2017-07-26T15:37:13.562Z,18.20
2017-07-26T15:39:41.062Z,19.40
2017-07-26T15:42:08.534Z,20.20
2017-07-26T15:44:36.002Z,21.10
2017-07-26T15:47:03.472Z,22.00
2017-07-26T15:49:30.961Z,22.40
2017-07-26T15:51:58.442Z,23.30
2017-07-26T15:54:25.962Z,24.00
2017-07-26T15:56:53.458Z,25.30
2017-07-26T15:59:20.922Z,26.10
2017-07-26T16:01:48.381Z,26.50
2017-07-26T16:04:15.861Z,27.50
2017-07-26T16:06:43.360Z,28.30
2017-07-26T16:09:10.826Z,29.10
2017-07-26T16:11:38.293Z,29.70
2017-07-26T16:14:05.774Z,30.00
2017-07-26T16:16:33.230Z,31.50
2017-07-26T16:19:00.718Z,31.70
2017-07-26T16:21:28.202Z,32.70
2017-07-26T16:23:55.680Z,32.70
2017-07-26T16:26:23.138Z,32.90
2017-07-26T16:28:50.627Z,32.80
2017-07-26T16:31:18.070Z,32.70
2017-07-26T16:33:45.521Z,33.00
2017-07-26T16:36:12.991Z,33.10
2017-07-26T16:38:40.451Z,33.30
2017-07-26T16:41:07.969Z,33.50
2017-07-26T16:43:36.189Z,34.10
2017-07-26T16:46:03.642Z,34.10
2017-07-26T16:48:31.505Z,34.40
2017-07-26T16:50:59.033Z,34.90
2017-07-26T16:53:26.493Z,35.10
2017-07-26T16:55:53.974Z,35.10
2017-07-26T16:58:21.445Z,35.30
2017-07-26T17:00:48.982Z,35.30
2017-07-26T17:03:16.438Z,35.30
2017-07-26T17:05:43.890Z,35.00
2017-07-26T17:08:11.381Z,35.10
2017-07-26T17:10:38.829Z,35.40
2017-07-26T17:13:06.282Z,35.20
2017-07-26T17:15:33.783Z,35.40
2017-07-26T17:18:01.237Z,35.40
2017-07-26T17:20:28.700Z,35.60
2017-07-26T17:22:56.181Z,35.70
2017-07-26T17:25:23.670Z,36.20
2017-07-26T17:27:51.130Z,36.70
2017-07-26T17:30:18.592Z,37.00
2017-07-26T17:32:46.040Z,37.10
2017-07-26T17:35:13.517Z,37.60
2017-07-26T17:37:40.975Z,37.80
2017-07-26T17:40:08.525Z,38.20
2017-07-26T17:42:36.000Z,37.90
2017-07-26T17:45:03.446Z,38.00
2017-07-26T17:47:30.897Z,37.90
2017-07-26T17:49:58.384Z,37.60
2017-07-26T17:52:26.199Z,37.80
2017-07-26T17:54:53.850Z,37.60
2017-07-26T17:57:22.086Z,37.00
2017-07-26T17:59:50.536Z,36.90
2017-07-26T18:02:18.032Z,36.80
2017-07-26T18:04:45.673Z,37.00
2017-07-26T18:07:14.484Z,36.40
2017-07-26T18:09:42.097Z,36.30
2017-07-26T18:12:09.729Z,36.50
2017-07-26T18:14:37.316Z,36.60
2017-07-26T18:17:04.952Z,36.80
2017-07-26T18:19:32.518Z,36.90
2017-07-26T18:22:00.007Z,37.40
2017-07-26T18:24:27.493Z,37.60
2017-07-26T18:26:55.089Z,38.20
2017-07-26T18:29:22.574Z,38.50
2017-07-26T18:31:50.059Z,38.90
2017-07-26T18:34:17.525Z,39.10
2017-07-26T18:36:45.039Z,39.20
2017-07-26T18:39:12.550Z,39.50
2017-07-26T18:41:40.163Z,39.60
2017-07-26T18:44:07.678Z,39.80
2017-07-26T18:46:35.125Z,40.40
2017-07-26T18:49:02.566Z,40.60
2017-07-26T18:51:30.042Z,40.80
2017-07-26T18:53:57.537Z,40.90
2017-07-26T18:56:24.989Z,41.40
2017-07-26T18:58:52.449Z,41.20
2017-07-26T19:01:19.932Z,41.30
2017-07-26T19:03:47.371Z,41.80
2017-07-26T19:06:14.852Z,42.00
2017-07-26T19:08:42.429Z,42.30
2017-07-26T19:11:09.916Z,42.40
2017-07-26T19:13:37.374Z,42.60
2017-07-26T19:16:04.834Z,42.90
2017-07-26T19:18:32.309Z,43.00
2017-07-26T19:20:59.814Z,43.00
2017-07-26T19:23:27.326Z,43.40
2017-07-26T19:25:54.858Z,44.10
2017-07-26T19:28:22.665Z,43.70
2017-07-26T19:30:50.335Z,43.90
2017-07-26T19:33:17.953Z,44.20
2017-07-26T19:35:45.662Z,44.40
2017-07-26T19:38:13.254Z,44.60
2017-07-26T19:40:41.016Z,44.70
2017-07-26T19:43:08.744Z,44.90
2017-07-26T19:45:36.409Z,45.10
2017-07-26T19:48:04.103Z,45.20
2017-07-26T19:50:31.736Z,45.30
2017-07-26T19:52:59.389Z,45.30
2017-07-26T19:55:27.067Z,45.30
2017-07-26T19:57:54.653Z,45.50
2017-07-26T20:00:22.659Z,45.60
2017-07-26T20:02:51.613Z,45.60
2017-07-26T20:05:19.337Z,45.70
2017-07-26T20:07:47.538Z,45.80
2017-07-26T20:10:15.173Z,45.80
2017-07-26T20:12:43.080Z,46.20
2017-07-26T20:15:10.667Z,46.00
2017-07-26T20:17:38.320Z,45.80
2017-07-26T20:20:06.086Z,45.80
2017-07-26T20:22:33.606Z,45.90
2017-07-26T20:25:01.310Z,46.10
2017-07-26T20:27:28.878Z,46.20
2017-07-26T20:29:56.435Z,46.30
2017-07-26T20:32:24.498Z,46.30
2017-07-26T20:34:52.035Z,46.40
2017-07-26T20:37:20.233Z,46.40
2017-07-26T20:39:47.745Z,46.30
2017-07-26T20:42:15.210Z,46.40
2017-07-26T20:44:43.434Z,46.90
2017-07-26T20:47:10.899Z,46.50
2017-07-26T20:49:38.407Z,46.50
2017-07-26T20:52:05.897Z,46.60
2017-07-26T20:54:33.342Z,46.80
2017-07-26T20:57:00.799Z,46.90
2017-07-26T20:59:28.322Z,47.00
2017-07-26T21:01:56.215Z,46.90
2017-07-26T21:04:23.705Z,46.90
2017-07-26T21:06:51.186Z,47.00
2017-07-26T21:09:18.642Z,47.10
2017-07-26T21:11:46.120Z,47.30
2017-07-26T21:14:13.662Z,47.40
2017-07-26T21:16:41.137Z,47.60
2017-07-26T21:19:08.603Z,47.80
2017-07-26T21:21:36.094Z,48.10
2017-07-26T21:24:03.573Z,48.40
2017-07-26T21:26:31.038Z,48.60
2017-07-26T21:28:58.602Z,49.00
2017-07-26T21:31:26.082Z,49.80
2017-07-26T21:33:53.554Z,50.40
2017-07-26T21:36:21.009Z,51.20
2017-07-26T21:38:48.509Z,51.90
2017-07-26T21:41:16.031Z,52.80
2017-07-26T21:43:43.816Z,53.60
2017-07-26T21:46:11.772Z,54.30
2017-07-26T21:48:39.277Z,54.90
2017-07-26T21:51:06.733Z,55.40
2017-07-26T21:53:34.210Z,55.80
2017-07-26T21:56:01.722Z,56.00
2017-07-26T21:58:29.224Z,56.60
2017-07-26T22:00:56.677Z,56.90
2017-07-26T22:03:24.163Z,57.30
2017-07-26T22:05:51.654Z,57.60
2017-07-26T22:08:19.886Z,57.80
2017-07-26T22:10:47.374Z,57.80
2017-07-26T22:13:14.862Z,57.90
2017-07-26T22:15:42.354Z,58.10
2017-07-26T22:18:09.818Z,58.20
2017-07-26T22:20:38.048Z,58.30
2017-07-26T22:23:06.293Z,58.40
2017-07-26T22:25:33.757Z,58.40
2017-07-26T22:28:01.216Z,58.50
2017-07-26T22:30:28.693Z,58.60
2017-07-26T22:32:56.915Z,58.80
2017-07-26T22:35:24.411Z,58.80
2017-07-26T22:37:51.906Z,58.80
2017-07-26T22:40:19.376Z,58.80
2017-07-26T22:42:46.830Z,58.90
2017-07-26T22:45:14.329Z,59.30
2017-07-26T22:47:41.778Z,58.90
2017-07-26T22:50:09.258Z,59.10
2017-07-26T22:52:36.745Z,59.20
2017-07-26T22:55:04.239Z,59.20
2017-07-26T22:57:31.743Z,59.20
2017-07-26T22:59:59.211Z,59.90
2017-07-26T23:02:27.430Z,59.20
2017-07-26T23:04:54.931Z,59.20
2017-07-26T23:07:22.401Z,59.10
2017-07-26T23:09:50.675Z,59.30
2017-07-26T23:12:18.889Z,59.80
2017-07-26T23:14:46.350Z,59.30
2017-07-26T23:17:13.838Z,59.30
2017-07-26T23:19:41.374Z,59.30
2017-07-26T23:22:08.829Z,59.30
2017-07-26T23:24:36.317Z,59.40
2017-07-26T23:27:03.794Z,59.50
2017-07-26T23:29:31.270Z,59.40
2017-07-26T23:31:58.749Z,59.40
2017-07-26T23:34:26.215Z,59.30
2017-07-26T23:36:53.700Z,59.30
2017-07-26T23:39:21.162Z,59.30
2017-07-26T23:41:48.658Z,59.30
2017-07-26T23:44:16.877Z,59.50
2017-07-26T23:46:44.346Z,59.50
2017-07-26T23:49:11.917Z,59.60
2017-07-26T23:51:39.400Z,59.90
2017-07-26T23:54:06.859Z,60.00
2017-07-26T23:56:34.310Z,60.40
2017-07-26T23:59:01.790Z,60.50
